Hlavní strana
METAR-TAF:

METAR-TAF

Letiště :

Fayetteville, Severní Karolína, Spojené státy americké

zeměpisná šířka: 34-59-22N, zeměpisná délka: 078-52-48W, výška: 57 m

Aktuální stav počasí

Zpráva byla vytvořena před 1 hodinou a 6 minutami, v 16:53 UTC
Západní vítr 13 kt s nárazy do 22 kt
Teplota 9°C
Vlhkost vzduchu 31%
Tlak 1016 hPa
Viditelnost: 16.1 km
Jasno

METAR: KFAY 271653Z 28013G22KT 10SM CLR 09/M07 A3001 RMK AO2 SLP158 T00941072

Čas: 12:59 (17:59 UTC)

Předpověď počasí

Zpráva byla vytvořena před 31 minutami, v 17:28 UTC
Předpověď platná od 27 v 18 UTC do 28 v 18 UTC
Západní vítr 15 kt s nárazy do 25 kt
Viditelnost: 10 km
Jasno
Od 28 v 0000 UTC
Západní vítr 5 kt
Viditelnost: 10 km
Jasno
Od 28 v 1600 UTC
Jihozápadní vítr 13 kt s nárazy do 20 kt
Viditelnost: 10 km
Zataženo ve výšce 10000 ft

TAF: KFAY 271728Z 2718/2818 28015G25KT P6SM SKC FM280000 26005KT P6SM SKC FM281600 23013G20KT P6SM OVC100

Stav a předpovědi počasí z více než 4 000 letišť (zprávy METAR a TAF).

Červené a žluté tečky na mapě představují dostupné meteorologické stanice.

Když kurzor umístíte na tečku, zobrazí se název stanice.

Pak kliknutím zobrazíte stav a předpověď počasí.

Chcete-li změnit mapu, kliknutím na zelené tlačítko se znaménkem +mapu přiblížíte, kliknutím na zelené tlačítko se znaménkem – mapu oddálíte a kliknutím na zelené šipky přejdete na sousední mapy.


METAR-TAF: